sensor_id;sensor_type;location;lat;lon;timestamp;temperature;humidity
9984;DHT22;16737;50.932;6.780;2023-04-19T00:00:36;15.20;80.00
9984;DHT22;16737;50.932;6.780;2023-04-19T00:03:04;15.10;80.00
9984;DHT22;16737;50.932;6.780;2023-04-19T00:05:32;15.10;80.00
9984;DHT22;16737;50.932;6.780;2023-04-19T00:08:01;15.10;80.10
9984;DHT22;16737;50.932;6.780;2023-04-19T00:10:28;15.10;80.10
9984;DHT22;16737;50.932;6.780;2023-04-19T00:12:55;15.10;80.20
9984;DHT22;16737;50.932;6.780;2023-04-19T00:15:21;15.10;80.40
9984;DHT22;16737;50.932;6.780;2023-04-19T00:17:49;15.10;80.40
9984;DHT22;16737;50.932;6.780;2023-04-19T00:20:16;15.10;80.40
9984;DHT22;16737;50.932;6.780;2023-04-19T00:22:44;15.10;80.50
9984;DHT22;16737;50.932;6.780;2023-04-19T00:25:11;15.00;80.50
9984;DHT22;16737;50.932;6.780;2023-04-19T00:27:38;15.10;80.70
9984;DHT22;16737;50.932;6.780;2023-04-19T00:30:06;15.10;80.70
9984;DHT22;16737;50.932;6.780;2023-04-19T00:32:33;15.00;80.80
9984;DHT22;16737;50.932;6.780;2023-04-19T00:35:00;15.00;80.80
9984;DHT22;16737;50.932;6.780;2023-04-19T00:37:28;15.00;80.90
9984;DHT22;16737;50.932;6.780;2023-04-19T00:39:56;15.00;81.00
9984;DHT22;16737;50.932;6.780;2023-04-19T00:42:23;15.00;81.10
9984;DHT22;16737;50.932;6.780;2023-04-19T00:44:50;15.00;81.10
9984;DHT22;16737;50.932;6.780;2023-04-19T00:47:17;15.00;81.20
9984;DHT22;16737;50.932;6.780;2023-04-19T00:49:44;14.90;81.10
9984;DHT22;16737;50.932;6.780;2023-04-19T00:52:12;15.00;81.10
9984;DHT22;16737;50.932;6.780;2023-04-19T00:54:39;15.00;81.10
9984;DHT22;16737;50.932;6.780;2023-04-19T00:57:10;15.00;81.20
9984;DHT22;16737;50.932;6.780;2023-04-19T00:59:37;15.00;81.20
9984;DHT22;16737;50.932;6.780;2023-04-19T01:02:04;14.90;81.00
9984;DHT22;16737;50.932;6.780;2023-04-19T01:04:32;15.00;81.20
9984;DHT22;16737;50.932;6.780;2023-04-19T01:07:00;14.90;81.20
9984;DHT22;16737;50.932;6.780;2023-04-19T01:09:27;14.90;81.20
9984;DHT22;16737;50.932;6.780;2023-04-19T01:11:54;14.90;81.20
9984;DHT22;16737;50.932;6.780;2023-04-19T01:14:22;14.90;81.30
9984;DHT22;16737;50.932;6.780;2023-04-19T01:16:50;14.90;81.50
9984;DHT22;16737;50.932;6.780;2023-04-19T01:19:17;14.80;81.30
9984;DHT22;16737;50.932;6.780;2023-04-19T01:21:44;14.80;81.30
9984;DHT22;16737;50.932;6.780;2023-04-19T01:24:13;14.70;81.30
9984;DHT22;16737;50.932;6.780;2023-04-19T01:26:40;14.80;81.60
9984;DHT22;16737;50.932;6.780;2023-04-19T01:29:06;14.70;81.50
9984;DHT22;16737;50.932;6.780;2023-04-19T01:31:33;14.70;81.50
9984;DHT22;16737;50.932;6.780;2023-04-19T01:34:00;14.70;81.70
9984;DHT22;16737;50.932;6.780;2023-04-19T01:36:27;14.60;81.70
9984;DHT22;16737;50.932;6.780;2023-04-19T01:38:56;14.60;81.70
9984;DHT22;16737;50.932;6.780;2023-04-19T01:41:24;14.60;82.00
9984;DHT22;16737;50.932;6.780;2023-04-19T01:43:52;14.60;82.10
9984;DHT22;16737;50.932;6.780;2023-04-19T01:46:18;14.60;82.10
9984;DHT22;16737;50.932;6.780;2023-04-19T01:48:45;14.50;82.20
9984;DHT22;16737;50.932;6.780;2023-04-19T01:51:12;14.50;82.20
9984;DHT22;16737;50.932;6.780;2023-04-19T01:53:41;14.50;82.30
9984;DHT22;16737;50.932;6.780;2023-04-19T01:56:08;14.40;82.30
9984;DHT22;16737;50.932;6.780;2023-04-19T01:58:36;14.40;82.30
9984;DHT22;16737;50.932;6.780;2023-04-19T02:01:03;14.40;82.60
9984;DHT22;16737;50.932;6.780;2023-04-19T02:03:30;14.40;82.40
9984;DHT22;16737;50.932;6.780;2023-04-19T02:05:57;14.30;82.40
9984;DHT22;16737;50.932;6.780;2023-04-19T02:08:25;14.30;82.50
9984;DHT22;16737;50.932;6.780;2023-04-19T02:10:52;14.20;82.50
9984;DHT22;16737;50.932;6.780;2023-04-19T02:13:19;14.20;82.60
9984;DHT22;16737;50.932;6.780;2023-04-19T02:15:47;14.20;82.70
9984;DHT22;16737;50.932;6.780;2023-04-19T02:18:14;14.20;82.90
9984;DHT22;16737;50.932;6.780;2023-04-19T02:20:43;14.20;82.80
9984;DHT22;16737;50.932;6.780;2023-04-19T02:23:09;14.10;83.00
9984;DHT22;16737;50.932;6.780;2023-04-19T02:25:37;14.10;83.10
9984;DHT22;16737;50.932;6.780;2023-04-19T02:28:04;14.10;83.00
9984;DHT22;16737;50.932;6.780;2023-04-19T02:30:31;14.00;83.30
9984;DHT22;16737;50.932;6.780;2023-04-19T02:32:59;14.00;83.30
9984;DHT22;16737;50.932;6.780;2023-04-19T02:35:26;14.00;83.60
9984;DHT22;16737;50.932;6.780;2023-04-19T02:37:53;14.00;83.50
9984;DHT22;16737;50.932;6.780;2023-04-19T02:40:20;14.00;83.60
9984;DHT22;16737;50.932;6.780;2023-04-19T02:42:51;14.00;83.80
9984;DHT22;16737;50.932;6.780;2023-04-19T02:45:18;14.00;83.90
9984;DHT22;16737;50.932;6.780;2023-04-19T02:47:45;13.90;83.90
9984;DHT22;16737;50.932;6.780;2023-04-19T02:50:14;13.90;84.10
9984;DHT22;16737;50.932;6.780;2023-04-19T02:52:42;13.90;84.30
9984;DHT22;16737;50.932;6.780;2023-04-19T02:55:09;13.90;84.20
9984;DHT22;16737;50.932;6.780;2023-04-19T02:57:36;13.90;84.30
9984;DHT22;16737;50.932;6.780;2023-04-19T03:00:03;13.80;84.40
9984;DHT22;16737;50.932;6.780;2023-04-19T03:02:33;13.90;84.60
9984;DHT22;16737;50.932;6.780;2023-04-19T03:05:00;13.90;84.60
9984;DHT22;16737;50.932;6.780;2023-04-19T03:07:28;13.80;84.70
9984;DHT22;16737;50.932;6.780;2023-04-19T03:09:55;13.80;84.80
9984;DHT22;16737;50.932;6.780;2023-04-19T03:12:22;13.80;84.70
9984;DHT22;16737;50.932;6.780;2023-04-19T03:14:49;13.80;84.80
9984;DHT22;16737;50.932;6.780;2023-04-19T03:17:15;13.80;84.80
9984;DHT22;16737;50.932;6.780;2023-04-19T03:19:42;13.80;85.00
9984;DHT22;16737;50.932;6.780;2023-04-19T03:22:09;13.80;84.90
9984;DHT22;16737;50.932;6.780;2023-04-19T03:24:37;13.80;85.10
9984;DHT22;16737;50.932;6.780;2023-04-19T03:27:04;13.80;85.30
9984;DHT22;16737;50.932;6.780;2023-04-19T03:29:31;13.80;85.30
9984;DHT22;16737;50.932;6.780;2023-04-19T03:31:58;13.80;85.30
9984;DHT22;16737;50.932;6.780;2023-04-19T03:34:26;13.80;85.60
9984;DHT22;16737;50.932;6.780;2023-04-19T03:36:53;13.80;85.60
9984;DHT22;16737;50.932;6.780;2023-04-19T03:39:20;13.80;85.70
9984;DHT22;16737;50.932;6.780;2023-04-19T03:41:48;13.80;85.70
9984;DHT22;16737;50.932;6.780;2023-04-19T03:44:15;13.80;86.10
9984;DHT22;16737;50.932;6.780;2023-04-19T03:46:42;13.80;86.00
9984;DHT22;16737;50.932;6.780;2023-04-19T03:49:10;13.80;86.00
9984;DHT22;16737;50.932;6.780;2023-04-19T03:51:37;13.80;86.00
9984;DHT22;16737;50.932;6.780;2023-04-19T03:54:04;13.80;86.10
9984;DHT22;16737;50.932;6.780;2023-04-19T03:56:31;13.80;86.40
9984;DHT22;16737;50.932;6.780;2023-04-19T03:58:59;13.80;85.90
9984;DHT22;16737;50.932;6.780;2023-04-19T04:01:26;13.80;86.60
9984;DHT22;16737;50.932;6.780;2023-04-19T04:03:53;13.80;86.50
9984;DHT22;16737;50.932;6.780;2023-04-19T04:06:20;13.80;86.60
9984;DHT22;16737;50.932;6.780;2023-04-19T04:08:47;13.80;86.70
9984;DHT22;16737;50.932;6.780;2023-04-19T04:11:14;13.80;87.00
9984;DHT22;16737;50.932;6.780;2023-04-19T04:13:41;13.80;86.90
9984;DHT22;16737;50.932;6.780;2023-04-19T04:16:09;13.80;87.00
9984;DHT22;16737;50.932;6.780;2023-04-19T04:18:36;13.80;87.10
9984;DHT22;16737;50.932;6.780;2023-04-19T04:21:03;13.80;87.30
9984;DHT22;16737;50.932;6.780;2023-04-19T04:23:30;13.80;87.30
9984;DHT22;16737;50.932;6.780;2023-04-19T04:25:58;13.80;87.30
9984;DHT22;16737;50.932;6.780;2023-04-19T04:28:27;13.80;87.40
9984;DHT22;16737;50.932;6.780;2023-04-19T04:30:54;13.80;87.30
9984;DHT22;16737;50.932;6.780;2023-04-19T04:33:25;13.80;87.40
9984;DHT22;16737;50.932;6.780;2023-04-19T04:35:53;13.80;87.70
9984;DHT22;16737;50.932;6.780;2023-04-19T04:38:20;13.90;87.50
9984;DHT22;16737;50.932;6.780;2023-04-19T04:40:51;13.90;87.70
9984;DHT22;16737;50.932;6.780;2023-04-19T04:43:19;13.90;87.90
9984;DHT22;16737;50.932;6.780;2023-04-19T04:45:47;13.90;87.50
9984;DHT22;16737;50.932;6.780;2023-04-19T04:48:14;13.90;87.60
9984;DHT22;16737;50.932;6.780;2023-04-19T04:50:43;14.00;87.70
9984;DHT22;16737;50.932;6.780;2023-04-19T04:53:10;13.90;87.80
9984;DHT22;16737;50.932;6.780;2023-04-19T04:55:37;14.00;87.80
9984;DHT22;16737;50.932;6.780;2023-04-19T04:58:05;14.00;87.80
9984;DHT22;16737;50.932;6.780;2023-04-19T05:00:32;14.00;87.90
9984;DHT22;16737;50.932;6.780;2023-04-19T05:02:59;14.00;87.90
9984;DHT22;16737;50.932;6.780;2023-04-19T05:05:27;14.00;87.90
9984;DHT22;16737;50.932;6.780;2023-04-19T05:07:55;14.00;88.00
9984;DHT22;16737;50.932;6.780;2023-04-19T05:10:22;14.00;88.20
9984;DHT22;16737;50.932;6.780;2023-04-19T05:12:49;14.00;88.10
9984;DHT22;16737;50.932;6.780;2023-04-19T05:15:16;14.00;88.10
9984;DHT22;16737;50.932;6.780;2023-04-19T05:17:43;14.00;88.10
9984;DHT22;16737;50.932;6.780;2023-04-19T05:20:10;14.10;88.10
9984;DHT22;16737;50.932;6.780;2023-04-19T05:22:37;14.10;88.10
9984;DHT22;16737;50.932;6.780;2023-04-19T05:25:07;14.10;88.10
9984;DHT22;16737;50.932;6.780;2023-04-19T05:27:35;14.10;88.30
9984;DHT22;16737;50.932;6.780;2023-04-19T05:30:02;14.10;88.00
9984;DHT22;16737;50.932;6.780;2023-04-19T05:32:30;14.10;88.00
9984;DHT22;16737;50.932;6.780;2023-04-19T05:34:57;14.10;88.00
9984;DHT22;16737;50.932;6.780;2023-04-19T05:37:24;14.10;88.10
9984;DHT22;16737;50.932;6.780;2023-04-19T05:39:51;14.10;88.10
9984;DHT22;16737;50.932;6.780;2023-04-19T05:42:19;14.10;88.20
9984;DHT22;16737;50.932;6.780;2023-04-19T05:44:46;14.10;88.40
9984;DHT22;16737;50.932;6.780;2023-04-19T05:47:13;14.10;88.30
9984;DHT22;16737;50.932;6.780;2023-04-19T05:49:41;14.20;88.50
9984;DHT22;16737;50.932;6.780;2023-04-19T05:52:08;14.20;88.60
9984;DHT22;16737;50.932;6.780;2023-04-19T05:54:35;14.20;88.60
9984;DHT22;16737;50.932;6.780;2023-04-19T05:57:02;14.20;88.60
9984;DHT22;16737;50.932;6.780;2023-04-19T05:59:31;14.20;88.60
9984;DHT22;16737;50.932;6.780;2023-04-19T06:01:58;14.20;88.60
9984;DHT22;16737;50.932;6.780;2023-04-19T06:04:25;14.20;88.50
9984;DHT22;16737;50.932;6.780;2023-04-19T06:06:52;14.30;88.60
9984;DHT22;16737;50.932;6.780;2023-04-19T06:09:19;14.30;88.50
9984;DHT22;16737;50.932;6.780;2023-04-19T06:11:46;14.30;88.40
9984;DHT22;16737;50.932;6.780;2023-04-19T06:14:13;14.30;88.30
9984;DHT22;16737;50.932;6.780;2023-04-19T06:16:41;14.20;88.30
9984;DHT22;16737;50.932;6.780;2023-04-19T06:19:08;14.30;88.40
9984;DHT22;16737;50.932;6.780;2023-04-19T06:21:35;14.20;88.20
9984;DHT22;16737;50.932;6.780;2023-04-19T06:24:03;14.20;88.10
9984;DHT22;16737;50.932;6.780;2023-04-19T06:26:31;14.20;87.90
9984;DHT22;16737;50.932;6.780;2023-04-19T06:28:58;14.20;87.60
9984;DHT22;16737;50.932;6.780;2023-04-19T06:31:25;14.20;87.60
9984;DHT22;16737;50.932;6.780;2023-04-19T06:33:54;14.10;87.60
9984;DHT22;16737;50.932;6.780;2023-04-19T06:36:21;14.10;87.70
9984;DHT22;16737;50.932;6.780;2023-04-19T06:38:48;14.10;87.70
9984;DHT22;16737;50.932;6.780;2023-04-19T06:41:15;14.10;87.70
9984;DHT22;16737;50.932;6.780;2023-04-19T06:43:42;14.10;87.60
9984;DHT22;16737;50.932;6.780;2023-04-19T06:46:09;14.10;87.60
9984;DHT22;16737;50.932;6.780;2023-04-19T06:48:38;14.10;87.60
9984;DHT22;16737;50.932;6.780;2023-04-19T06:51:06;14.10;87.60
9984;DHT22;16737;50.932;6.780;2023-04-19T06:53:33;14.10;87.60
9984;DHT22;16737;50.932;6.780;2023-04-19T06:56:02;14.10;87.60
9984;DHT22;16737;50.932;6.780;2023-04-19T06:58:30;14.20;87.60
9984;DHT22;16737;50.932;6.780;2023-04-19T07:00:58;14.20;87.40
9984;DHT22;16737;50.932;6.780;2023-04-19T07:03:26;14.20;87.30
9984;DHT22;16737;50.932;6.780;2023-04-19T07:05:52;14.20;87.10
9984;DHT22;16737;50.932;6.780;2023-04-19T07:08:22;14.20;87.20
9984;DHT22;16737;50.932;6.780;2023-04-19T07:10:50;14.20;87.10
9984;DHT22;16737;50.932;6.780;2023-04-19T07:13:17;14.20;87.10
9984;DHT22;16737;50.932;6.780;2023-04-19T07:15:44;14.20;87.10
9984;DHT22;16737;50.932;6.780;2023-04-19T07:18:11;14.20;86.90
9984;DHT22;16737;50.932;6.780;2023-04-19T07:20:40;14.30;86.90
9984;DHT22;16737;50.932;6.780;2023-04-19T07:23:09;14.30;86.90
9984;DHT22;16737;50.932;6.780;2023-04-19T07:25:37;14.40;86.70
9984;DHT22;16737;50.932;6.780;2023-04-19T07:28:04;14.40;86.60
9984;DHT22;16737;50.932;6.780;2023-04-19T07:30:31;14.40;86.50
9984;DHT22;16737;50.932;6.780;2023-04-19T07:32:58;14.40;86.40
9984;DHT22;16737;50.932;6.780;2023-04-19T07:35:25;14.50;86.30
9984;DHT22;16737;50.932;6.780;2023-04-19T07:37:52;14.50;86.20
9984;DHT22;16737;50.932;6.780;2023-04-19T07:40:19;14.60;86.30
9984;DHT22;16737;50.932;6.780;2023-04-19T07:42:47;14.60;86.30
9984;DHT22;16737;50.932;6.780;2023-04-19T07:45:14;14.60;86.10
9984;DHT22;16737;50.932;6.780;2023-04-19T07:47:41;14.70;86.40
9984;DHT22;16737;50.932;6.780;2023-04-19T07:50:09;14.70;86.20
9984;DHT22;16737;50.932;6.780;2023-04-19T07:52:36;14.80;85.90
9984;DHT22;16737;50.932;6.780;2023-04-19T07:55:04;14.80;85.80
9984;DHT22;16737;50.932;6.780;2023-04-19T07:57:33;14.90;86.00
9984;DHT22;16737;50.932;6.780;2023-04-19T08:00:01;15.00;85.60
9984;DHT22;16737;50.932;6.780;2023-04-19T08:02:29;15.00;84.90
9984;DHT22;16737;50.932;6.780;2023-04-19T08:04:56;15.10;85.00
9984;DHT22;16737;50.932;6.780;2023-04-19T08:07:23;15.10;84.60
9984;DHT22;16737;50.932;6.780;2023-04-19T08:09:50;15.20;84.50
9984;DHT22;16737;50.932;6.780;2023-04-19T08:12:17;15.20;83.90
9984;DHT22;16737;50.932;6.780;2023-04-19T08:14:44;15.20;83.90
9984;DHT22;16737;50.932;6.780;2023-04-19T08:17:13;15.30;83.70
9984;DHT22;16737;50.932;6.780;2023-04-19T08:19:45;15.30;83.30
9984;DHT22;16737;50.932;6.780;2023-04-19T08:22:11;15.40;83.40
9984;DHT22;16737;50.932;6.780;2023-04-19T08:24:38;15.40;83.20
9984;DHT22;16737;50.932;6.780;2023-04-19T08:27:05;15.50;83.60
9984;DHT22;16737;50.932;6.780;2023-04-19T08:29:32;15.50;83.30
9984;DHT22;16737;50.932;6.780;2023-04-19T08:31:59;15.60;83.00
9984;DHT22;16737;50.932;6.780;2023-04-19T08:34:28;15.60;83.00
9984;DHT22;16737;50.932;6.780;2023-04-19T08:36:55;15.60;82.60
9984;DHT22;16737;50.932;6.780;2023-04-19T08:39:22;15.70;82.80
9984;DHT22;16737;50.932;6.780;2023-04-19T08:41:49;15.70;82.90
9984;DHT22;16737;50.932;6.780;2023-04-19T08:44:18;15.80;82.70
9984;DHT22;16737;50.932;6.780;2023-04-19T08:46:47;15.90;82.10
9984;DHT22;16737;50.932;6.780;2023-04-19T08:49:15;15.90;81.90
9984;DHT22;16737;50.932;6.780;2023-04-19T08:51:47;16.00;80.70
9984;DHT22;16737;50.932;6.780;2023-04-19T08:54:15;16.00;80.30
9984;DHT22;16737;50.932;6.780;2023-04-19T08:56:42;16.10;80.50
9984;DHT22;16737;50.932;6.780;2023-04-19T08:59:09;16.10;80.50
9984;DHT22;16737;50.932;6.780;2023-04-19T09:01:37;16.20;80.10
9984;DHT22;16737;50.932;6.780;2023-04-19T09:04:05;16.20;80.30
9984;DHT22;16737;50.932;6.780;2023-04-19T09:06:35;16.20;80.50
9984;DHT22;16737;50.932;6.780;2023-04-19T09:09:14;16.30;80.20
9984;DHT22;16737;50.932;6.780;2023-04-19T09:11:42;16.40;77.50
9984;DHT22;16737;50.932;6.780;2023-04-19T09:14:10;16.50;79.30
9984;DHT22;16737;50.932;6.780;2023-04-19T09:16:41;16.50;79.00
9984;DHT22;16737;50.932;6.780;2023-04-19T09:19:08;16.60;78.50
9984;DHT22;16737;50.932;6.780;2023-04-19T09:21:37;16.70;78.10
9984;DHT22;16737;50.932;6.780;2023-04-19T09:24:05;16.70;76.10
9984;DHT22;16737;50.932;6.780;2023-04-19T09:26:34;16.80;76.80
9984;DHT22;16737;50.932;6.780;2023-04-19T09:29:03;16.80;76.60
9984;DHT22;16737;50.932;6.780;2023-04-19T09:31:33;16.90;76.10
9984;DHT22;16737;50.932;6.780;2023-04-19T09:34:12;17.00;76.40
9984;DHT22;16737;50.932;6.780;2023-04-19T09:36:40;17.00;73.50
9984;DHT22;16737;50.932;6.780;2023-04-19T09:39:07;17.00;73.00
9984;DHT22;16737;50.932;6.780;2023-04-19T09:41:50;17.10;74.50
9984;DHT22;16737;50.932;6.780;2023-04-19T09:44:18;17.20;70.40
9984;DHT22;16737;50.932;6.780;2023-04-19T09:46:46;17.20;73.30
9984;DHT22;16737;50.932;6.780;2023-04-19T09:49:19;17.20;74.40
9984;DHT22;16737;50.932;6.780;2023-04-19T09:51:50;17.30;73.30
9984;DHT22;16737;50.932;6.780;2023-04-19T09:54:19;17.30;73.00
9984;DHT22;16737;50.932;6.780;2023-04-19T09:56:49;17.40;71.00
9984;DHT22;16737;50.932;6.780;2023-04-19T09:59:18;17.40;72.90
9984;DHT22;16737;50.932;6.780;2023-04-19T10:01:46;17.50;71.00
9984;DHT22;16737;50.932;6.780;2023-04-19T10:04:15;17.50;70.20
9984;DHT22;16737;50.932;6.780;2023-04-19T10:06:47;17.50;70.60
9984;DHT22;16737;50.932;6.780;2023-04-19T10:09:17;17.50;70.70
9984;DHT22;16737;50.932;6.780;2023-04-19T10:11:49;17.60;71.60
9984;DHT22;16737;50.932;6.780;2023-04-19T10:14:21;17.60;69.00
9984;DHT22;16737;50.932;6.780;2023-04-19T10:16:50;17.60;68.20
9984;DHT22;16737;50.932;6.780;2023-04-19T10:19:20;17.70;69.00
9984;DHT22;16737;50.932;6.780;2023-04-19T10:21:49;17.70;66.90
9984;DHT22;16737;50.932;6.780;2023-04-19T10:24:16;17.70;67.90
9984;DHT22;16737;50.932;6.780;2023-04-19T10:27:06;17.80;67.70
9984;DHT22;16737;50.932;6.780;2023-04-19T10:29:57;17.80;63.30
9984;DHT22;16737;50.932;6.780;2023-04-19T10:32:29;17.80;64.30
9984;DHT22;16737;50.932;6.780;2023-04-19T10:35:07;17.80;63.10
9984;DHT22;16737;50.932;6.780;2023-04-19T10:37:38;17.80;64.80
9984;DHT22;16737;50.932;6.780;2023-04-19T10:40:08;17.80;63.60
9984;DHT22;16737;50.932;6.780;2023-04-19T10:43:17;17.80;66.20
9984;DHT22;16737;50.932;6.780;2023-04-19T10:45:45;17.80;63.00
9984;DHT22;16737;50.932;6.780;2023-04-19T10:48:42;17.80;66.50
9984;DHT22;16737;50.932;6.780;2023-04-19T10:51:19;17.90;62.40
9984;DHT22;16737;50.932;6.780;2023-04-19T10:53:52;17.90;64.10
9984;DHT22;16737;50.932;6.780;2023-04-19T10:56:22;18.00;63.90
9984;DHT22;16737;50.932;6.780;2023-04-19T10:59:38;18.00;63.50
9984;DHT22;16737;50.932;6.780;2023-04-19T11:02:26;18.10;60.90
9984;DHT22;16737;50.932;6.780;2023-04-19T11:04:59;18.10;60.30
9984;DHT22;16737;50.932;6.780;2023-04-19T11:07:27;18.10;62.30
9984;DHT22;16737;50.932;6.780;2023-04-19T11:10:01;18.20;61.60
9984;DHT22;16737;50.932;6.780;2023-04-19T11:12:29;18.20;61.30
9984;DHT22;16737;50.932;6.780;2023-04-19T11:14:57;18.20;61.00
9984;DHT22;16737;50.932;6.780;2023-04-19T11:17:28;18.20;61.30
9984;DHT22;16737;50.932;6.780;2023-04-19T11:19:58;18.30;61.70
9984;DHT22;16737;50.932;6.780;2023-04-19T11:22:30;18.30;59.10
9984;DHT22;16737;50.932;6.780;2023-04-19T11:25:07;18.30;59.50
9984;DHT22;16737;50.932;6.780;2023-04-19T11:27:38;18.40;60.10
9984;DHT22;16737;50.932;6.780;2023-04-19T11:30:10;18.40;60.50
9984;DHT22;16737;50.932;6.780;2023-04-19T11:32:44;18.50;59.40
9984;DHT22;16737;50.932;6.780;2023-04-19T11:35:12;18.50;59.40
9984;DHT22;16737;50.932;6.780;2023-04-19T11:37:40;18.50;59.50
9984;DHT22;16737;50.932;6.780;2023-04-19T11:40:07;18.60;59.60
9984;DHT22;16737;50.932;6.780;2023-04-19T11:42:35;18.60;59.80
9984;DHT22;16737;50.932;6.780;2023-04-19T11:45:02;18.60;57.50
9984;DHT22;16737;50.932;6.780;2023-04-19T11:47:31;18.70;58.50
9984;DHT22;16737;50.932;6.780;2023-04-19T11:50:29;18.70;58.60
9984;DHT22;16737;50.932;6.780;2023-04-19T11:52:57;18.70;56.00
9984;DHT22;16737;50.932;6.780;2023-04-19T11:55:32;18.70;57.30
9984;DHT22;16737;50.932;6.780;2023-04-19T11:57:59;18.70;56.20
9984;DHT22;16737;50.932;6.780;2023-04-19T12:00:27;18.80;56.40
9984;DHT22;16737;50.932;6.780;2023-04-19T12:02:55;18.80;56.10
9984;DHT22;16737;50.932;6.780;2023-04-19T12:05:23;18.80;55.40
9984;DHT22;16737;50.932;6.780;2023-04-19T12:08:03;18.80;55.40
9984;DHT22;16737;50.932;6.780;2023-04-19T12:10:33;18.80;54.70
9984;DHT22;16737;50.932;6.780;2023-04-19T12:13:04;18.80;55.40
9984;DHT22;16737;50.932;6.780;2023-04-19T12:15:42;18.90;55.60
9984;DHT22;16737;50.932;6.780;2023-04-19T12:18:11;18.90;54.70
9984;DHT22;16737;50.932;6.780;2023-04-19T12:20:44;18.90;54.10
9984;DHT22;16737;50.932;6.780;2023-04-19T12:23:12;18.90;52.90
9984;DHT22;16737;50.932;6.780;2023-04-19T12:25:41;18.90;54.50
9984;DHT22;16737;50.932;6.780;2023-04-19T12:28:09;18.80;53.80
9984;DHT22;16737;50.932;6.780;2023-04-19T12:30:36;18.80;54.70
9984;DHT22;16737;50.932;6.780;2023-04-19T12:33:03;18.80;52.90
9984;DHT22;16737;50.932;6.780;2023-04-19T12:35:31;18.80;53.20
9984;DHT22;16737;50.932;6.780;2023-04-19T12:37:59;18.80;54.10
9984;DHT22;16737;50.932;6.780;2023-04-19T12:40:28;18.80;53.60
9984;DHT22;16737;50.932;6.780;2023-04-19T12:42:55;18.80;54.20
9984;DHT22;16737;50.932;6.780;2023-04-19T12:45:22;18.80;54.30
9984;DHT22;16737;50.932;6.780;2023-04-19T12:47:49;18.80;52.80
9984;DHT22;16737;50.932;6.780;2023-04-19T12:50:16;18.80;52.30
9984;DHT22;16737;50.932;6.780;2023-04-19T12:52:45;18.80;53.20
9984;DHT22;16737;50.932;6.780;2023-04-19T12:55:11;18.80;52.50
9984;DHT22;16737;50.932;6.780;2023-04-19T12:57:38;18.70;51.80
9984;DHT22;16737;50.932;6.780;2023-04-19T13:00:07;18.80;52.60
9984;DHT22;16737;50.932;6.780;2023-04-19T13:02:35;18.80;52.10
9984;DHT22;16737;50.932;6.780;2023-04-19T13:05:02;18.80;51.90
9984;DHT22;16737;50.932;6.780;2023-04-19T13:07:30;18.80;52.10
9984;DHT22;16737;50.932;6.780;2023-04-19T13:09:58;18.80;51.10
9984;DHT22;16737;50.932;6.780;2023-04-19T13:12:26;18.80;51.10
9984;DHT22;16737;50.932;6.780;2023-04-19T13:14:53;18.80;52.00
9984;DHT22;16737;50.932;6.780;2023-04-19T13:17:20;18.80;51.10
9984;DHT22;16737;50.932;6.780;2023-04-19T13:19:47;18.90;51.40
9984;DHT22;16737;50.932;6.780;2023-04-19T13:22:14;18.90;51.60
9984;DHT22;16737;50.932;6.780;2023-04-19T13:24:41;18.90;51.40
9984;DHT22;16737;50.932;6.780;2023-04-19T13:27:10;19.00;51.80
9984;DHT22;16737;50.932;6.780;2023-04-19T13:29:37;19.00;50.90
9984;DHT22;16737;50.932;6.780;2023-04-19T13:32:07;19.10;50.10
9984;DHT22;16737;50.932;6.780;2023-04-19T13:34:37;19.10;51.10
9984;DHT22;16737;50.932;6.780;2023-04-19T13:37:05;19.10;51.60
9984;DHT22;16737;50.932;6.780;2023-04-19T13:39:33;19.20;50.10
9984;DHT22;16737;50.932;6.780;2023-04-19T13:42:00;19.20;50.40
9984;DHT22;16737;50.932;6.780;2023-04-19T13:44:28;19.30;50.00
9984;DHT22;16737;50.932;6.780;2023-04-19T13:46:55;19.30;48.50
9984;DHT22;16737;50.932;6.780;2023-04-19T13:49:22;19.40;48.60
9984;DHT22;16737;50.932;6.780;2023-04-19T13:51:49;19.40;47.60
9984;DHT22;16737;50.932;6.780;2023-04-19T13:54:17;19.40;49.00
9984;DHT22;16737;50.932;6.780;2023-04-19T13:56:45;19.40;49.30
9984;DHT22;16737;50.932;6.780;2023-04-19T13:59:12;19.40;48.00
9984;DHT22;16737;50.932;6.780;2023-04-19T14:01:41;19.40;47.80
9984;DHT22;16737;50.932;6.780;2023-04-19T14:04:08;19.40;48.70
9984;DHT22;16737;50.932;6.780;2023-04-19T14:06:36;19.40;49.20
9984;DHT22;16737;50.932;6.780;2023-04-19T14:09:03;19.40;48.70
9984;DHT22;16737;50.932;6.780;2023-04-19T14:11:31;19.50;49.10
9984;DHT22;16737;50.932;6.780;2023-04-19T14:13:59;19.50;48.60
9984;DHT22;16737;50.932;6.780;2023-04-19T14:16:26;19.50;48.10
9984;DHT22;16737;50.932;6.780;2023-04-19T14:18:56;19.50;48.70
9984;DHT22;16737;50.932;6.780;2023-04-19T14:21:29;19.60;48.20
9984;DHT22;16737;50.932;6.780;2023-04-19T14:23:56;19.60;47.40
9984;DHT22;16737;50.932;6.780;2023-04-19T14:26:23;19.60;47.80
9984;DHT22;16737;50.932;6.780;2023-04-19T14:28:50;19.60;47.50
9984;DHT22;16737;50.932;6.780;2023-04-19T14:31:17;19.60;46.90
9984;DHT22;16737;50.932;6.780;2023-04-19T14:33:44;19.60;46.80
9984;DHT22;16737;50.932;6.780;2023-04-19T14:36:13;19.60;47.60
9984;DHT22;16737;50.932;6.780;2023-04-19T14:38:40;19.60;47.80
9984;DHT22;16737;50.932;6.780;2023-04-19T14:41:07;19.60;47.80
9984;DHT22;16737;50.932;6.780;2023-04-19T14:43:34;19.60;46.80
9984;DHT22;16737;50.932;6.780;2023-04-19T14:46:01;19.60;46.60
9984;DHT22;16737;50.932;6.780;2023-04-19T14:48:28;19.60;47.40
9984;DHT22;16737;50.932;6.780;2023-04-19T14:50:55;19.50;48.00
9984;DHT22;16737;50.932;6.780;2023-04-19T14:53:23;19.50;47.10
9984;DHT22;16737;50.932;6.780;2023-04-19T14:55:50;19.50;47.00
9984;DHT22;16737;50.932;6.780;2023-04-19T14:58:17;19.50;47.50
9984;DHT22;16737;50.932;6.780;2023-04-19T15:00:44;19.50;47.60
9984;DHT22;16737;50.932;6.780;2023-04-19T15:03:11;19.50;46.20
9984;DHT22;16737;50.932;6.780;2023-04-19T15:05:37;19.50;45.20
9984;DHT22;16737;50.932;6.780;2023-04-19T15:08:05;19.50;44.40
9984;DHT22;16737;50.932;6.780;2023-04-19T15:10:33;19.40;44.80
9984;DHT22;16737;50.932;6.780;2023-04-19T15:13:00;19.40;45.90
9984;DHT22;16737;50.932;6.780;2023-04-19T15:15:27;19.30;44.90
9984;DHT22;16737;50.932;6.780;2023-04-19T15:17:54;19.30;44.90
9984;DHT22;16737;50.932;6.780;2023-04-19T15:20:21;19.30;44.70
9984;DHT22;16737;50.932;6.780;2023-04-19T15:22:49;19.20;44.10
9984;DHT22;16737;50.932;6.780;2023-04-19T15:25:16;19.20;45.30
9984;DHT22;16737;50.932;6.780;2023-04-19T15:27:45;19.10;44.90
9984;DHT22;16737;50.932;6.780;2023-04-19T15:30:12;19.20;45.30
9984;DHT22;16737;50.932;6.780;2023-04-19T15:32:39;19.10;45.70
9984;DHT22;16737;50.932;6.780;2023-04-19T15:35:07;19.10;46.10
9984;DHT22;16737;50.932;6.780;2023-04-19T15:37:35;19.10;45.80
9984;DHT22;16737;50.932;6.780;2023-04-19T15:40:02;19.20;45.70
9984;DHT22;16737;50.932;6.780;2023-04-19T15:42:31;19.20;46.40
9984;DHT22;16737;50.932;6.780;2023-04-19T15:45:00;19.20;45.30
9984;DHT22;16737;50.932;6.780;2023-04-19T15:47:27;19.20;45.70
9984;DHT22;16737;50.932;6.780;2023-04-19T15:49:53;19.20;45.80
9984;DHT22;16737;50.932;6.780;2023-04-19T15:52:21;19.20;45.00